Time;durP1;ratioP1;P1;durP2;ratioP2;P2;SDS_P1;SDS_P2;PMS_P1;PMS_P2;Temp;Humidity;BMP_temperature;BMP_pressure;BME280_temperature;BME280_humidity;BME280_pressure;Samples;Min_cycle;Max_cycle;Signal;HPM_P1;HPM_P2
2022/03/12 00:01:00;;;;;;;12.93;5.35;;;;;;;2.39;36.14;101925.88;5047657;28;20112;-67
2022/03/12 00:03:26;;;;;;;12.15;5.60;;;;;;;2.35;36.43;101925.00;5047172;28;20127;-67
2022/03/12 00:05:54;;;;;;;14.77;6.47;;;;;;;2.43;36.28;101920.72;5046373;28;20107;-67
2022/03/12 00:08:34;;;;;;;8.48;4.40;;;;;;;2.28;36.41;101920.69;5046883;28;20421;-67
2022/03/12 00:11:00;;;;;;;13.75;5.50;;;;;;;2.47;36.49;101910.34;5055746;28;20052;-67
2022/03/12 00:13:26;;;;;;;10.85;5.45;;;;;;;2.43;36.51;101923.31;5064508;28;20044;-67
2022/03/12 00:15:58;;;;;;;10.88;4.93;;;;;;;2.30;36.68;101911.19;5061764;28;20134;-66
2022/03/12 00:18:30;;;;;;;12.45;5.93;;;;;;;2.04;37.03;101912.88;5058180;28;20053;-67
2022/03/12 00:20:58;;;;;;;9.82;5.47;;;;;;;2.03;37.57;101907.72;5053686;28;20390;-67
2022/03/12 00:23:30;;;;;;;10.77;5.03;;;;;;;2.39;36.75;101912.94;5063120;28;20146;-67
2022/03/12 00:25:58;;;;;;;15.32;6.03;;;;;;;2.33;36.97;101902.56;5059263;28;20053;-67
2022/03/12 00:28:24;;;;;;;14.10;5.93;;;;;;;2.16;37.14;101896.53;5053791;28;20048;-67
2022/03/12 00:30:51;;;;;;;11.27;5.05;;;;;;;2.34;36.90;101894.81;5050906;28;20445;-67
2022/03/12 00:33:18;;;;;;;7.78;4.45;;;;;;;2.18;37.28;101902.56;5046728;28;20542;-66
2022/03/12 00:35:47;;;;;;;10.05;4.80;;;;;;;2.28;37.16;101891.38;5063955;28;20086;-67
2022/03/12 00:38:13;;;;;;;10.93;5.45;;;;;;;1.95;37.97;101890.47;5066681;28;20060;-66
2022/03/12 00:40:41;;;;;;;11.57;6.05;;;;;;;1.89;38.04;101895.59;5049301;28;20124;-66
2022/03/12 00:43:08;;;;;;;14.40;5.03;;;;;;;2.06;37.58;101903.41;5048990;28;20049;-66
2022/03/12 00:45:34;;;;;;;13.27;6.78;;;;;;;2.04;37.70;101899.94;5051905;28;20040;-70
2022/03/12 00:48:00;;;;;;;13.73;7.30;;;;;;;1.73;38.17;101900.75;5062864;28;20068;-70
2022/03/12 00:50:27;;;;;;;14.05;6.72;;;;;;;1.98;37.66;101893.91;5059125;28;20044;-70
2022/03/12 00:52:53;;;;;;;13.70;6.50;;;;;;;1.82;37.89;101893.00;5068727;28;20080;-70
2022/03/12 00:55:20;;;;;;;9.70;5.40;;;;;;;2.05;37.46;101893.06;5057357;28;20094;-70
2022/03/12 00:57:48;;;;;;;13.23;6.40;;;;;;;1.85;37.67;101891.28;5054706;28;20102;-70
2022/03/12 01:00:17;;;;;;;13.48;5.60;;;;;;;1.93;37.34;101887.00;5066816;28;20044;-70
2022/03/12 01:02:44;;;;;;;10.27;5.18;;;;;;;1.75;37.45;101880.91;5059946;28;20098;-70
2022/03/12 01:05:13;;;;;;;15.52;6.10;;;;;;;1.75;37.67;101879.22;5052176;28;20153;-70
2022/03/12 01:07:40;;;;;;;10.02;4.65;;;;;;;1.73;37.61;101878.34;5048079;28;20523;-73
2022/03/12 01:10:06;;;;;;;14.18;6.82;;;;;;;1.86;37.06;101879.22;5049282;28;20072;-70
2022/03/12 01:12:33;;;;;;;15.60;5.88;;;;;;;1.89;37.13;101877.50;5068727;28;20044;-70
2022/03/12 01:15:01;;;;;;;10.48;4.07;;;;;;;1.75;37.19;101881.78;5066195;28;20072;-70
2022/03/12 01:17:27;;;;;;;15.30;6.90;;;;;;;1.87;36.68;101881.81;5059835;28;20049;-71
2022/03/12 01:19:53;;;;;;;12.35;6.00;;;;;;;1.65;37.12;101887.81;5063364;28;20053;-71
2022/03/12 01:22:20;;;;;;;14.63;5.72;;;;;;;2.17;36.32;101887.91;5048860;28;20412;-70
2022/03/12 01:24:47;;;;;;;11.80;5.95;;;;;;;2.13;36.53;101883.59;5060083;28;20041;-70
2022/03/12 01:27:15;;;;;;;9.10;3.90;;;;;;;1.85;36.38;101885.25;5063992;28;20040;-70
2022/03/12 01:29:41;;;;;;;10.32;5.03;;;;;;;1.83;36.12;101874.91;5056629;28;20501;-70
2022/03/12 01:32:10;;;;;;;13.45;6.15;;;;;;;1.96;35.96;101881.81;5069973;28;20072;-70
2022/03/12 01:34:37;;;;;;;15.02;6.95;;;;;;;1.98;35.91;101873.22;5065075;28;20097;-70
2022/03/12 01:37:04;;;;;;;12.82;4.70;;;;;;;2.19;35.62;101868.06;5088379;28;20102;-70
2022/03/12 01:39:30;;;;;;;17.40;7.03;;;;;;;2.02;35.46;101872.38;5055457;28;20052;-70
2022/03/12 01:41:57;;;;;;;11.32;5.00;;;;;;;1.67;35.96;101861.94;5052634;28;20044;-70
2022/03/12 01:44:23;;;;;;;7.18;3.88;;;;;;;1.72;35.91;101860.25;5067892;28;20405;-70
2022/03/12 01:46:50;;;;;;;13.00;5.82;;;;;;;1.90;35.61;101853.38;5059806;28;20451;-70
2022/03/12 01:49:20;;;;;;;12.43;5.97;;;;;;;2.09;35.07;101858.56;5052346;28;20103;-70
2022/03/12 01:51:48;;;;;;;12.20;6.25;;;;;;;2.08;35.03;101862.00;5081103;28;20511;-71
2022/03/12 01:54:26;;;;;;;10.45;4.10;;;;;;;2.14;34.82;101864.63;5083193;28;20144;-71
2022/03/12 01:56:55;;;;;;;10.63;5.15;;;;;;;2.16;34.69;101874.09;5078249;28;20083;-71
2022/03/12 01:59:22;;;;;;;13.40;5.90;;;;;;;2.12;34.40;101869.78;5072495;28;20044;-71
2022/03/12 02:01:52;;;;;;;11.27;5.43;;;;;;;1.80;34.76;101874.06;5065960;28;20133;-71
2022/03/12 02:04:21;;;;;;;10.88;5.18;;;;;;;1.79;35.28;101872.31;5078176;28;20044;-71
2022/03/12 02:06:48;;;;;;;9.00;4.82;;;;;;;2.06;34.25;101882.72;5086929;28;20124;-71
2022/03/12 02:09:15;;;;;;;7.43;2.85;;;;;;;1.56;34.94;101872.25;5074608;28;20049;-71
2022/03/12 02:11:43;;;;;;;10.20;4.97;;;;;;;1.51;35.45;101875.69;5068303;28;20118;-71
2022/03/12 02:14:11;;;;;;;6.78;3.28;;;;;;;1.51;35.08;101870.53;5084427;28;20392;-71
2022/03/12 02:16:41;;;;;;;12.15;5.45;;;;;;;1.72;34.80;101874.03;5082696;28;20044;-70
2022/03/12 02:19:08;;;;;;;8.98;4.40;;;;;;;1.50;34.90;101868.78;5084104;28;20083;-71
2022/03/12 02:21:39;;;;;;;12.93;5.18;;;;;;;1.74;34.55;101871.44;5083763;28;20044;-71
2022/03/12 02:24:09;;;;;;;9.13;4.60;;;;;;;1.34;34.76;101871.31;5071649;28;20056;-71
2022/03/12 02:26:36;;;;;;;17.23;5.55;;;;;;;1.89;34.13;101874.91;5064805;28;20090;-71
2022/03/12 02:29:03;;;;;;;9.63;4.82;;;;;;;2.03;34.05;101871.50;5065056;28;20072;-71
2022/03/12 02:31:29;;;;;;;6.95;2.97;;;;;;;1.90;33.39;101865.44;5057513;28;20045;-70
2022/03/12 02:34:01;;;;;;;6.00;3.10;;;;;;;1.85;33.71;101861.97;5048638;28;20087;-70
2022/03/12 02:36:27;;;;;;;9.45;4.45;;;;;;;1.75;33.94;101861.09;5049283;28;20045;-71
2022/03/12 02:38:54;;;;;;;9.57;4.28;;;;;;;1.89;33.37;101869.75;5048493;28;20045;-71
2022/03/12 02:41:24;;;;;;;9.38;4.97;;;;;;;2.05;33.12;101869.78;5050047;28;20037;-71
2022/03/12 02:43:51;;;;;;;9.80;4.78;;;;;;;1.90;33.04;101876.66;5055425;28;20045;-70
2022/03/12 02:46:17;;;;;;;10.35;4.32;;;;;;;1.87;33.11;101865.44;5053676;28;20098;-71
2022/03/12 02:48:52;;;;;;;12.10;4.45;;;;;;;1.82;33.70;101867.16;5058782;28;20121;-71
2022/03/12 02:51:22;;;;;;;9.68;3.85;;;;;;;1.74;33.30;101864.53;5068432;28;20066;-71
2022/03/12 02:53:51;;;;;;;8.55;4.65;;;;;;;1.80;33.41;101859.41;5079629;28;20462;-71
2022/03/12 02:56:18;;;;;;;9.00;4.28;;;;;;;2.25;32.83;101860.31;5083092;28;20514;-71
2022/03/12 02:58:46;;;;;;;9.82;4.10;;;;;;;2.09;32.97;101862.03;5063169;28;20493;-71
2022/03/12 03:01:14;;;;;;;10.73;4.45;;;;;;;1.88;33.13;101868.03;5051702;28;20098;-71
2022/03/12 03:03:41;;;;;;;9.18;3.53;;;;;;;1.65;33.71;101864.53;5061133;28;20075;-71
2022/03/12 03:06:08;;;;;;;8.40;4.32;;;;;;;1.80;33.43;101867.16;5061749;28;20048;-71
2022/03/12 03:08:37;;;;;;;9.20;4.32;;;;;;;1.64;33.48;101867.09;5066222;28;20261;-71
2022/03/12 03:11:11;;;;;;;10.25;4.60;;;;;;;1.51;34.01;101868.81;5054262;28;20483;-71
2022/03/12 03:13:40;;;;;;;7.68;3.70;;;;;;;1.76;33.50;101875.78;5067923;28;20056;-71
2022/03/12 03:16:21;;;;;;;8.45;4.10;;;;;;;1.60;34.08;101875.72;5083738;28;20082;-71
2022/03/12 03:18:52;;;;;;;9.00;3.80;;;;;;;1.25;34.40;101885.94;5073741;28;20045;-71
2022/03/12 03:21:19;;;;;;;8.88;3.92;;;;;;;1.78;33.84;101886.97;5076797;28;20523;-71
2022/03/12 03:23:47;;;;;;;9.93;4.15;;;;;;;1.94;33.29;101885.28;5075798;28;20043;-71
2022/03/12 03:26:14;;;;;;;8.48;4.03;;;;;;;1.60;33.42;101886.91;5087143;28;20112;-71
2022/03/12 03:28:41;;;;;;;11.05;4.15;;;;;;;2.01;33.01;101887.00;5089508;28;20127;-71
2022/03/12 03:31:08;;;;;;;13.57;5.10;;;;;;;1.80;33.29;101892.16;5067380;28;20053;-71
2022/03/12 03:33:36;;;;;;;10.18;4.40;;;;;;;1.55;33.58;101880.88;5074326;28;20125;-71
2022/03/12 03:36:02;;;;;;;16.75;4.90;;;;;;;1.73;33.56;101890.41;5068343;28;20068;-71
2022/03/12 03:38:28;;;;;;;8.70;3.75;;;;;;;1.85;33.05;101887.84;5065807;28;20466;-71
2022/03/12 03:40:55;;;;;;;11.57;5.05;;;;;;;1.67;33.18;101886.06;5069218;28;20068;-71
2022/03/12 03:43:25;;;;;;;9.27;4.57;;;;;;;1.22;34.37;101894.50;5070038;28;20484;-71
2022/03/12 03:45:54;;;;;;;12.20;4.63;;;;;;;1.55;34.10;101896.41;5059772;28;20080;-71
2022/03/12 03:48:22;;;;;;;9.15;4.57;;;;;;;1.22;34.41;101891.09;5065721;28;20484;-71
2022/03/12 03:50:52;;;;;;;10.52;4.40;;;;;;;1.63;34.04;101889.50;5086629;28;20052;-71
2022/03/12 03:53:20;;;;;;;7.85;4.55;;;;;;;1.85;33.92;101883.53;5076750;28;20120;-71
2022/03/12 03:55:46;;;;;;;10.65;4.35;;;;;;;2.01;33.51;101886.16;5083856;28;20058;-71
2022/03/12 03:58:14;;;;;;;11.05;4.57;;;;;;;2.32;32.93;101887.91;5089309;28;20044;-71
2022/03/12 04:00:54;;;;;;;9.00;4.50;;;;;;;2.28;32.94;101884.47;5089009;28;20047;-71
2022/03/12 04:03:20;;;;;;;8.75;4.43;;;;;;;2.29;32.85;101887.91;5076376;28;20047;-71
2022/03/12 04:05:47;;;;;;;9.13;4.60;;;;;;;2.08;33.29;101887.88;5088455;28;20097;-71
2022/03/12 04:08:15;;;;;;;9.93;4.55;;;;;;;2.36;33.37;101889.66;5074154;28;20040;-71
2022/03/12 04:10:41;;;;;;;9.60;4.20;;;;;;;1.61;34.36;101880.03;5086967;28;20404;-71
2022/03/12 04:13:12;;;;;;;12.57;4.78;;;;;;;1.40;35.25;101892.00;5089200;28;20052;-71
2022/03/12 04:15:38;;;;;;;8.95;4.45;;;;;;;1.06;35.93;101899.59;5086702;28;20444;-71
2022/03/12 04:18:07;;;;;;;10.45;4.95;;;;;;;0.56;36.98;101897.53;5076387;28;20144;-71
2022/03/12 04:20:34;;;;;;;7.50;4.30;;;;;;;0.49;37.38;101899.22;5088375;28;20123;-71
2022/03/12 04:23:01;;;;;;;17.40;5.28;;;;;;;0.54;37.71;101904.41;5084340;28;20093;-71
2022/03/12 04:25:31;;;;;;;10.10;4.60;;;;;;;0.25;38.99;101900.75;5086009;28;20048;-71
2022/03/12 04:27:58;;;;;;;12.13;4.95;;;;;;;0.16;39.57;101900.63;5087997;28;20052;-71
2022/03/12 04:30:25;;;;;;;9.65;4.70;;;;;;;0.14;39.11;101900.66;5088828;28;20040;-71
2022/03/12 04:32:51;;;;;;;8.98;4.22;;;;;;;-0.27;39.76;101902.81;5088601;28;20040;-71
2022/03/12 04:35:19;;;;;;;8.48;3.85;;;;;;;-0.20;40.68;101908.88;5089574;28;20496;-71
2022/03/12 04:37:45;;;;;;;9.80;4.30;;;;;;;-0.15;40.24;101905.50;5070068;28;20109;-71
2022/03/12 04:40:17;;;;;;;12.93;5.07;;;;;;;-0.15;39.07;101897.75;5069214;28;20116;-71
2022/03/12 04:42:45;;;;;;;14.00;5.22;;;;;;;0.10;38.59;101887.69;5069025;28;20500;-71
2022/03/12 04:45:14;;;;;;;9.70;4.30;;;;;;;0.09;38.52;101892.00;5071024;28;20048;-70
2022/03/12 04:47:43;;;;;;;11.27;4.32;;;;;;;0.42;38.18;101881.97;5087798;28;20527;-71
2022/03/12 04:50:12;;;;;;;9.88;5.07;;;;;;;0.70;37.44;101885.59;5087954;28;20105;-71
2022/03/12 04:52:38;;;;;;;14.00;4.85;;;;;;;0.73;37.29;101884.78;5087546;28;20047;-71
2022/03/12 04:55:09;;;;;;;6.90;3.72;;;;;;;0.79;37.20;101874.47;5081814;28;20440;-71
2022/03/12 04:57:36;;;;;;;8.43;4.00;;;;;;;1.05;36.92;101877.19;5088400;28;20411;-71
2022/03/12 05:00:05;;;;;;;9.90;4.93;;;;;;;0.83;37.37;101882.25;5084352;28;20044;-71
2022/03/12 05:02:32;;;;;;;7.70;3.67;;;;;;;0.79;37.89;101877.06;5079395;28;20087;-71
2022/03/12 05:04:58;;;;;;;14.63;4.47;;;;;;;0.59;38.26;101864.03;5086963;28;20052;-71
2022/03/12 05:07:26;;;;;;;12.80;5.00;;;;;;;0.20;39.29;101879.19;5068231;28;20117;-71
2022/03/12 05:09:53;;;;;;;10.32;4.72;;;;;;;0.60;38.50;101878.66;5067820;28;20407;-71
2022/03/12 05:12:21;;;;;;;9.27;5.07;;;;;;;0.81;38.23;101885.69;5069068;28;20420;-71
2022/03/12 05:14:49;;;;;;;12.60;5.10;;;;;;;1.16;37.48;101885.88;5076745;28;20043;-71
2022/03/12 05:17:17;;;;;;;11.40;5.65;;;;;;;0.94;37.66;101892.63;5079639;28;20051;-71
2022/03/12 05:19:43;;;;;;;10.35;4.90;;;;;;;1.16;37.48;101884.16;5067622;28;20041;-71
2022/03/12 05:22:10;;;;;;;8.55;5.03;;;;;;;0.84;37.70;101889.16;5066603;28;20070;-71
2022/03/12 05:24:36;;;;;;;10.32;4.40;;;;;;;0.84;38.16;101884.00;5066836;28;20390;-71
2022/03/12 05:27:04;;;;;;;11.23;5.45;;;;;;;0.65;38.55;101881.25;5073640;28;20560;-71
2022/03/12 05:29:31;;;;;;;9.73;4.78;;;;;;;0.85;38.53;101883.13;5076662;28;20047;-71
2022/03/12 05:31:57;;;;;;;10.65;4.80;;;;;;;0.72;38.95;101889.06;5088298;28;20048;-71
2022/03/12 05:34:25;;;;;;;7.80;3.50;;;;;;;0.46;39.54;101882.84;5086915;28;20101;-70
2022/03/12 05:36:52;;;;;;;10.00;4.90;;;;;;;-0.02;40.53;101893.59;5080472;28;20048;-70
2022/03/12 05:39:19;;;;;;;10.65;5.07;;;;;;;0.52;40.28;101892.38;5087368;28;20066;-70
2022/03/12 05:41:49;;;;;;;12.80;5.15;;;;;;;0.35;40.45;101892.22;5050728;28;20049;-70
2022/03/12 05:44:16;;;;;;;11.80;5.25;;;;;;;0.43;40.48;101904.34;5047797;28;20494;-71
2022/03/12 05:46:43;;;;;;;9.40;4.53;;;;;;;0.13;40.99;101898.03;5058064;28;20053;-70
2022/03/12 05:49:11;;;;;;;18.58;5.95;;;;;;;0.29;41.08;101905.06;5066437;28;20119;-71
2022/03/12 05:51:42;;;;;;;12.13;5.55;;;;;;;0.56;40.57;101905.28;5067774;28;20052;-71
2022/03/12 05:54:09;;;;;;;10.75;5.07;;;;;;;0.46;40.31;101906.06;5067852;28;20151;-71
2022/03/12 05:56:40;;;;;;;10.63;4.85;;;;;;;0.87;39.77;101896.03;5052106;28;20041;-71
2022/03/12 05:59:06;;;;;;;11.25;5.25;;;;;;;0.62;40.45;101907.94;5064317;28;20049;-71
2022/03/12 06:01:33;;;;;;;11.68;5.88;;;;;;;0.40;40.65;101911.19;5065406;28;20770;-71
2022/03/12 06:04:00;;;;;;;10.80;5.10;;;;;;;0.80;39.86;101926.13;5064114;28;20053;-70
2022/03/12 06:06:34;;;;;;;13.75;5.25;;;;;;;0.57;40.42;101926.78;5071863;28;20127;-71
2022/03/12 06:09:05;;;;;;;10.65;5.28;;;;;;;1.30;38.55;101922.97;5070671;28;20059;-71
2022/03/12 06:11:36;;;;;;;8.85;3.97;;;;;;;1.01;39.18;101934.84;5055423;28;20540;-71
2022/03/12 06:14:03;;;;;;;12.13;5.15;;;;;;;1.66;37.99;101924.88;5051019;28;20417;-71
2022/03/12 06:16:31;;;;;;;10.13;4.93;;;;;;;1.86;37.71;101925.78;5052525;28;20037;-71
2022/03/12 06:18:57;;;;;;;9.98;4.80;;;;;;;2.46;36.57;101930.19;5059619;28;20040;-71
2022/03/12 06:21:23;;;;;;;9.95;4.72;;;;;;;2.56;35.59;101926.75;5070078;28;20037;-70
2022/03/12 06:23:51;;;;;;;14.90;5.72;;;;;;;2.83;35.20;101916.38;5061218;28;20045;-70
2022/03/12 06:26:21;;;;;;;12.40;5.18;;;;;;;2.96;34.75;101926.72;5058073;28;20041;-70
2022/03/12 06:28:47;;;;;;;11.77;6.25;;;;;;;3.05;35.08;101926.69;5067505;28;20481;-71
2022/03/12 06:31:14;;;;;;;9.32;4.72;;;;;;;2.81;34.62;101938.81;5077782;28;20120;-71
2022/03/12 06:33:41;;;;;;;11.88;6.28;;;;;;;2.44;35.30;101925.00;5090562;28;20044;-70
2022/03/12 06:36:08;;;;;;;12.38;5.80;;;;;;;3.53;34.21;101934.31;5089001;28;20567;-71
2022/03/12 06:38:37;;;;;;;10.18;4.88;;;;;;;3.74;33.00;101935.94;5090991;28;20496;-70
2022/03/12 06:41:04;;;;;;;13.35;5.93;;;;;;;4.13;32.62;101930.56;5083630;28;20407;-70
2022/03/12 06:43:33;;;;;;;16.05;5.53;;;;;;;4.34;32.26;101924.34;5071098;28;20102;-70
2022/03/12 06:46:01;;;;;;;11.68;6.05;;;;;;;4.23;32.44;101929.63;5073885;28;20049;-70
2022/03/12 06:48:28;;;;;;;11.07;6.30;;;;;;;4.37;32.86;101930.38;5078992;28;20117;-70
2022/03/12 06:50:55;;;;;;;11.85;6.00;;;;;;;4.95;32.25;101924.72;5078467;28;20510;-71
2022/03/12 06:53:21;;;;;;;10.45;5.28;;;;;;;5.97;29.63;101921.78;5091061;28;20044;-70
2022/03/12 06:55:47;;;;;;;11.40;5.82;;;;;;;5.94;29.49;101931.38;5077905;28;20133;-71
2022/03/12 06:58:14;;;;;;;12.23;6.13;;;;;;;6.13;29.59;101914.59;5070376;28;20101;-71
2022/03/12 07:00:42;;;;;;;11.07;6.32;;;;;;;5.27;30.55;101926.97;5070110;28;20064;-71
2022/03/12 07:03:08;;;;;;;13.32;6.00;;;;;;;5.30;31.15;101930.38;5078396;28;20106;-71
2022/03/12 07:05:35;;;;;;;12.82;6.00;;;;;;;6.41;29.23;101923.72;5090955;28;20094;-71
2022/03/12 07:08:01;;;;;;;9.85;5.72;;;;;;;6.18;29.23;101933.63;5090110;28;20050;-71
2022/03/12 07:10:28;;;;;;;9.05;4.47;;;;;;;6.42;29.32;101935.88;5079780;28;20040;-70
2022/03/12 07:12:54;;;;;;;9.40;5.47;;;;;;;6.98;27.98;101928.84;5087048;28;20124;-70
2022/03/12 07:15:22;;;;;;;9.70;5.93;;;;;;;6.77;28.43;101933.53;5074205;28;20040;-71
2022/03/12 07:17:49;;;;;;;13.18;6.00;;;;;;;6.07;29.79;101943.31;5081573;28;20043;-70
2022/03/12 07:20:17;;;;;;;13.45;6.03;;;;;;;6.24;28.81;101941.34;5086557;28;20070;-71
2022/03/12 07:22:44;;;;;;;12.57;6.15;;;;;;;6.28;29.07;101951.69;5084030;28;20052;-71
2022/03/12 07:25:12;;;;;;;11.40;5.70;;;;;;;6.41;29.09;101943.69;5070139;28;20118;-71
2022/03/12 07:27:39;;;;;;;10.38;5.25;;;;;;;5.95;29.09;101940.91;5082711;28;20040;-70
2022/03/12 07:30:07;;;;;;;11.40;5.80;;;;;;;5.75;29.33;101949.81;5088560;28;20137;-71
2022/03/12 07:32:35;;;;;;;10.23;5.72;;;;;;;5.43;30.19;101954.53;5083208;28;20040;-70
2022/03/12 07:35:03;;;;;;;12.77;5.32;;;;;;;6.02;29.44;101946.00;5074765;28;20052;-71
2022/03/12 07:37:29;;;;;;;9.30;5.13;;;;;;;6.73;28.06;101957.94;5074486;28;20105;-71
2022/03/12 07:39:56;;;;;;;10.27;5.85;;;;;;;7.82;28.08;101957.63;5087282;28;20060;-70
2022/03/12 07:42:22;;;;;;;11.65;5.57;;;;;;;6.73;27.16;101959.66;5083260;28;20106;-69
2022/03/12 07:44:49;;;;;;;10.77;5.70;;;;;;;7.18;26.60;101951.06;5089149;28;20487;-70
2022/03/12 07:47:15;;;;;;;8.30;5.00;;;;;;;7.39;26.17;101959.38;5090001;28;20130;-69
2022/03/12 07:49:42;;;;;;;13.80;5.40;;;;;;;7.99;25.41;101954.63;5088427;28;20055;-69
2022/03/12 07:52:10;;;;;;;10.98;5.50;;;;;;;6.59;26.83;101962.50;5088975;28;20792;-69
2022/03/12 07:54:36;;;;;;;9.07;4.95;;;;;;;7.48;25.57;101960.03;5087968;28;20047;-69
2022/03/12 07:57:03;;;;;;;11.73;4.78;;;;;;;6.58;25.03;101957.31;5089779;28;20093;-68
2022/03/12 07:59:30;;;;;;;9.40;4.70;;;;;;;6.40;24.84;101965.41;5086657;28;20113;-68
2022/03/12 08:01:58;;;;;;;9.18;5.22;;;;;;;6.45;26.66;101961.00;5085665;28;20131;-69
2022/03/12 08:04:25;;;;;;;10.02;5.03;;;;;;;6.00;25.92;101947.75;5087849;28;20051;-70
2022/03/12 08:06:52;;;;;;;7.13;3.45;;;;;;;6.69;25.05;101956.25;5089842;28;20036;-68
2022/03/12 08:09:19;;;;;;;11.20;4.80;;;;;;;7.18;25.52;101969.31;5071409;28;20040;-70
2022/03/12 08:11:47;;;;;;;7.93;4.18;;;;;;;6.76;25.40;101973.50;5069046;28;20044;-70
2022/03/12 08:14:17;;;;;;;8.02;4.20;;;;;;;7.14;25.04;101972.00;5065817;28;20052;-71
2022/03/12 08:16:44;;;;;;;9.23;5.35;;;;;;;6.27;25.29;101968.22;5063735;28;20443;-70
2022/03/12 08:19:11;;;;;;;10.15;5.10;;;;;;;6.41;26.12;101964.53;5062273;28;20045;-71
2022/03/12 08:21:39;;;;;;;12.13;4.93;;;;;;;7.48;25.53;101967.88;5071331;28;20052;-70
2022/03/12 08:24:06;;;;;;;7.35;4.40;;;;;;;7.62;24.72;101975.44;5081220;28;20052;-71
2022/03/12 08:26:34;;;;;;;9.68;5.13;;;;;;;7.30;25.83;101970.84;5083917;28;20089;-70
2022/03/12 08:29:01;;;;;;;6.90;3.83;;;;;;;7.07;24.78;101973.84;5087003;28;20058;-71
2022/03/12 08:31:27;;;;;;;8.48;4.50;;;;;;;7.78;24.12;101962.03;5077147;28;20570;-66
2022/03/12 08:33:54;;;;;;;14.10;4.90;;;;;;;7.81;25.20;101968.94;5084452;28;20048;-67
2022/03/12 08:36:20;;;;;;;8.65;4.47;;;;;;;7.95;24.13;101973.88;5087977;28;20048;-67
2022/03/12 08:38:47;;;;;;;13.85;4.68;;;;;;;7.91;23.82;101959.19;5083620;28;20068;-67
2022/03/12 08:41:14;;;;;;;13.60;4.85;;;;;;;7.89;24.77;101958.34;5080169;28;20047;-67
2022/03/12 08:43:42;;;;;;;6.85;4.00;;;;;;;8.42;23.31;101963.28;5087023;28;20465;-67
2022/03/12 08:46:09;;;;;;;8.15;4.78;;;;;;;8.83;24.50;101964.91;5085390;28;20082;-67
2022/03/12 08:48:36;;;;;;;8.82;4.30;;;;;;;9.20;22.95;101960.41;5088204;28;20044;-67
2022/03/12 08:51:03;;;;;;;11.52;4.60;;;;;;;9.52;22.62;101951.69;5086817;28;20063;-67
2022/03/12 08:53:30;;;;;;;8.38;4.35;;;;;;;9.63;22.95;101949.63;5083814;28;21499;-66
2022/03/12 08:55:57;;;;;;;8.32;5.05;;;;;;;9.35;24.63;101958.31;5088139;28;20071;-66
2022/03/12 08:58:23;;;;;;;10.55;4.82;;;;;;;8.66;22.10;101949.59;5086065;28;20048;-66
2022/03/12 09:00:52;;;;;;;7.50;4.78;;;;;;;8.91;23.26;101955.06;5085391;28;20048;-66
2022/03/12 09:03:19;;;;;;;10.55;4.80;;;;;;;8.50;24.98;101950.88;5086354;28;20214;-66
2022/03/12 09:05:45;;;;;;;10.38;4.57;;;;;;;8.76;23.43;101935.41;5071441;28;20049;-66
2022/03/12 09:08:12;;;;;;;9.50;4.60;;;;;;;9.49;23.71;101946.56;5086802;28;20145;-67
2022/03/12 09:10:38;;;;;;;8.43;4.70;;;;;;;9.33;22.34;101947.00;5080347;28;20048;-67
2022/03/12 09:13:06;;;;;;;11.10;5.10;;;;;;;9.16;22.69;101943.06;5086573;28;20250;-67
2022/03/12 09:15:36;;;;;;;9.48;4.47;;;;;;;8.47;23.32;101944.84;5084331;28;20044;-67
2022/03/12 09:18:03;;;;;;;9.20;4.75;;;;;;;8.29;23.36;101925.25;5087392;28;20097;-68
2022/03/12 09:20:30;;;;;;;8.98;4.65;;;;;;;8.09;22.91;101935.28;5084579;28;20044;-67
2022/03/12 09:22:56;;;;;;;8.35;3.83;;;;;;;8.93;23.45;101919.28;5088348;28;20052;-67
2022/03/12 09:25:23;;;;;;;9.50;4.32;;;;;;;8.54;22.29;101926.38;5087090;28;20048;-67
2022/03/12 09:27:49;;;;;;;7.78;3.92;;;;;;;8.74;22.15;101936.34;5085152;28;20120;-68
2022/03/12 09:30:15;;;;;;;9.60;3.83;;;;;;;8.87;21.85;101923.84;5083093;28;20060;-67
2022/03/12 09:32:42;;;;;;;7.00;3.95;;;;;;;9.91;22.30;101915.63;5073807;28;20044;-67
2022/03/12 09:35:11;;;;;;;6.53;3.58;;;;;;;9.61;21.52;101909.53;5076926;28;20118;-67
2022/03/12 09:37:38;;;;;;;9.68;3.95;;;;;;;9.88;21.60;101917.47;5066610;28;20110;-67
2022/03/12 09:40:06;;;;;;;7.60;4.13;;;;;;;10.81;21.60;101912.75;5087610;28;20097;-67
2022/03/12 09:42:33;;;;;;;8.05;4.00;;;;;;;11.40;21.03;101923.78;5086348;28;20051;-67
2022/03/12 09:45:00;;;;;;;8.02;3.42;;;;;;;10.86;20.05;101923.97;5091024;28;20052;-68
2022/03/12 09:47:26;;;;;;;8.10;3.95;;;;;;;9.74;20.29;101917.88;5086132;28;20113;-67
2022/03/12 09:49:52;;;;;;;7.63;3.80;;;;;;;10.15;20.46;101911.44;5090088;28;20496;-66
2022/03/12 09:52:20;;;;;;;10.52;4.30;;;;;;;11.01;21.89;101900.66;5067001;28;20068;-67
2022/03/12 09:54:47;;;;;;;12.65;4.20;;;;;;;11.16;20.20;101901.88;5072031;28;20068;-67
2022/03/12 09:57:13;;;;;;;10.18;4.63;;;;;;;11.92;20.59;101906.94;5072247;28;20828;-68
2022/03/12 09:59:40;;;;;;;8.18;3.80;;;;;;;11.12;19.32;101909.00;5062191;28;20135;-66
2022/03/12 10:02:06;;;;;;;11.77;4.25;;;;;;;10.21;19.76;101904.22;5062395;28;20669;-66
2022/03/12 10:04:33;;;;;;;10.57;3.45;;;;;;;11.41;19.95;101915.00;5066349;28;20044;-66
2022/03/12 10:06:59;;;;;;;6.28;3.58;;;;;;;10.91;19.41;101901.03;5067372;28;20068;-66
2022/03/12 10:09:27;;;;;;;9.63;3.90;;;;;;;10.96;20.26;101901.72;5068077;28;20068;-67
2022/03/12 10:11:54;;;;;;;8.32;3.75;;;;;;;11.81;18.64;101894.22;5065502;28;20068;-67
2022/03/12 10:14:22;;;;;;;8.15;3.83;;;;;;;10.33;19.41;101895.13;5064408;28;20049;-67
2022/03/12 10:16:49;;;;;;;8.30;3.95;;;;;;;10.90;19.22;101889.66;5065230;28;21074;-67
2022/03/12 10:19:15;;;;;;;8.02;3.25;;;;;;;10.68;20.83;101896.56;5056618;28;20122;-66
2022/03/12 10:21:45;;;;;;;5.90;3.60;;;;;;;11.16;20.87;101888.75;5063409;28;20428;-66
2022/03/12 10:24:11;;;;;;;6.10;3.55;;;;;;;11.71;19.61;101891.06;5052522;28;20060;-67
2022/03/12 10:26:40;;;;;;;8.75;4.03;;;;;;;11.70;19.02;101897.25;5051721;28;20091;-66
2022/03/12 10:29:07;;;;;;;10.63;4.43;;;;;;;12.06;20.47;101879.22;5051166;28;20528;-68
2022/03/12 10:31:34;;;;;;;9.73;4.35;;;;;;;11.87;18.63;101878.22;5051430;28;20045;-67
2022/03/12 10:34:18;;;;;;;7.40;3.85;;;;;;;11.93;19.80;101882.38;5051739;28;20393;-68
2022/03/12 10:36:45;;;;;;;7.75;4.10;;;;;;;12.44;20.65;101879.44;5053126;28;20576;-67
2022/03/12 10:39:12;;;;;;;8.43;4.28;;;;;;;11.54;19.53;101882.94;5051324;28;20080;-67
2022/03/12 10:41:40;;;;;;;7.55;3.80;;;;;;;11.29;19.92;101866.41;5062217;28;20750;-67
2022/03/12 10:44:06;;;;;;;8.45;4.15;;;;;;;11.35;21.37;101865.31;5061797;28;20052;-67
2022/03/12 10:46:35;;;;;;;8.00;3.95;;;;;;;11.37;20.43;101861.72;5056310;28;20047;-67
2022/03/12 10:49:03;;;;;;;6.75;3.92;;;;;;;11.62;18.98;101865.13;5056992;28;20471;-67
2022/03/12 10:51:32;;;;;;;6.32;3.90;;;;;;;11.36;19.11;101864.41;5055154;28;20123;-67
2022/03/12 10:54:05;;;;;;;9.32;3.42;;;;;;;11.55;19.34;101866.28;5052542;28;20115;-67
2022/03/12 10:56:48;;;;;;;7.18;3.70;;;;;;;11.48;20.31;101867.44;5051920;28;20045;-67
2022/03/12 10:59:17;;;;;;;6.45;3.63;;;;;;;11.82;20.78;101858.31;5065056;28;20045;-67
2022/03/12 11:01:47;;;;;;;6.45;3.30;;;;;;;11.50;18.36;101851.59;5090468;28;20331;-67
2022/03/12 11:04:19;;;;;;;6.30;3.72;;;;;;;11.85;18.30;101848.53;5088183;28;20053;-67
2022/03/12 11:06:46;;;;;;;6.43;3.88;;;;;;;12.39;20.37;101845.41;5081870;28;20052;-67
2022/03/12 11:09:17;;;;;;;5.90;3.08;;;;;;;11.55;18.29;101860.19;5064345;28;20048;-68
2022/03/12 11:11:45;;;;;;;6.10;3.38;;;;;;;11.77;21.41;101847.09;5060424;28;20417;-67
2022/03/12 11:14:19;;;;;;;7.28;3.53;;;;;;;12.04;18.54;101846.88;5062939;28;20056;-68
2022/03/12 11:16:52;;;;;;;7.40;3.40;;;;;;;11.61;18.31;101850.28;5061371;28;20447;-67
2022/03/12 11:19:37;;;;;;;;;;;;;;;11.51;18.21;101845.44;5067722;28;20103;-67
2022/03/12 11:22:10;;;;;;;7.25;3.35;;;;;;;12.40;18.18;101841.88;5067357;28;20391;-67
2022/03/12 11:24:45;;;;;;;9.90;3.63;;;;;;;12.87;18.77;101838.97;5053616;28;20047;-67
2022/03/12 11:27:18;;;;;;;6.55;3.20;;;;;;;12.11;18.27;101848.34;5077300;28;20052;-68
2022/03/12 11:29:57;;;;;;;6.15;3.60;;;;;;;11.60;20.45;101848.56;5088417;28;20067;-67
2022/03/12 11:32:23;;;;;;;9.73;4.00;;;;;;;11.79;18.90;101837.41;5082579;28;20036;-68